Terminal Aerodrome Forecast
Issued by NWS

Home | Current Version | Previous Version | Text Only | Print | Product List | Glossary On
Versions: 1 2 3 4 5 6 7 8 9 10 11 12 13 14 15 16
000
FTUS45 KABQ 011100
TAFLVS
TAF
KLVS 011120Z 0112/0212 VRB05KT P6SM SKC
     FM011700 29010G18KT P6SM SKC
     FM012000 22018G30KT P6SM FEW080 FEW150
     FM020200 26010KT P6SM SCT120
     FM020600 31012G22KT P6SM FEW120=

USA.gov is the U.S. government's official web portal to all federal, state and local government web resources and services.